Time;durP1;ratioP1;P1;durP2;ratioP2;P2;SDS_P1;SDS_P2;PMS_P1;PMS_P2;Temp;Humidity;BMP_temperature;BMP_pressure;BME280_temperature;BME280_humidity;BME280_pressure;Samples;Min_cycle;Max_cycle;Signal;HPM_P1;HPM_P2
2022/08/16 00:02:03;;;;;;;3.80;1.58;;;;;;;15.46;94.78;99726.09;4957526;28;20065;-81
2022/08/16 00:04:29;;;;;;;4.38;1.58;;;;;;;15.48;94.46;99729.38;4995249;28;20040;-82
2022/08/16 00:06:55;;;;;;;6.18;1.60;;;;;;;15.54;94.45;99729.63;5013219;28;20058;-80
2022/08/16 00:09:21;;;;;;;5.15;1.77;;;;;;;15.57;94.30;99730.06;5004179;28;20048;-80
2022/08/16 00:11:48;;;;;;;3.40;1.45;;;;;;;15.54;94.52;99721.63;4984175;28;20092;-83
2022/08/16 00:14:21;;;;;;;2.65;1.50;;;;;;;15.52;94.80;99726.31;4995950;28;20113;-81
2022/08/16 00:16:47;;;;;;;3.22;1.35;;;;;;;15.48;95.00;99726.72;4999878;28;20512;-83
2022/08/16 00:19:25;;;;;;;2.60;1.48;;;;;;;15.49;94.99;99735.53;4977117;28;20041;-85
2022/08/16 00:21:52;;;;;;;3.55;1.85;;;;;;;15.49;94.95;99732.88;4965117;28;20036;-80
2022/08/16 00:24:18;;;;;;;2.40;2.05;;;;;;;15.51;94.72;99741.50;4969400;28;20046;-80
2022/08/16 00:26:44;;;;;;;6.22;1.83;;;;;;;15.49;94.89;99747.00;5004486;28;20034;-80
2022/08/16 00:29:13;;;;;;;3.70;1.63;;;;;;;15.49;94.35;99754.16;4988030;28;20030;-85
2022/08/16 00:31:39;;;;;;;4.10;1.55;;;;;;;15.44;94.61;99749.44;5020200;28;20034;-80
2022/08/16 00:34:05;;;;;;;4.20;1.50;;;;;;;15.45;94.82;99748.41;4976223;28;20048;-82
2022/08/16 00:36:31;;;;;;;2.20;1.08;;;;;;;15.44;94.53;99745.94;5000121;28;20054;-79
2022/08/16 00:38:57;;;;;;;2.88;1.42;;;;;;;15.44;94.85;99746.75;5016304;28;21197;-83
2022/08/16 00:41:26;;;;;;;4.63;1.48;;;;;;;15.45;94.82;99742.28;4971892;28;20037;-80
2022/08/16 00:43:52;;;;;;;2.80;1.10;;;;;;;15.48;94.80;99747.22;5003303;28;20034;-84
2022/08/16 00:46:35;;;;;;;4.00;1.67;;;;;;;15.47;94.58;99745.53;4972248;28;20034;-80
2022/08/16 00:49:10;;;;;;;2.47;1.27;;;;;;;15.53;94.55;99744.75;4990294;28;20117;-81
2022/08/16 00:51:36;;;;;;;1.65;1.00;;;;;;;15.54;94.59;99749.09;4972393;28;20044;-79
2022/08/16 00:54:02;;;;;;;2.70;1.30;;;;;;;15.54;94.61;99743.78;4977368;28;20091;-79
2022/08/16 00:56:37;;;;;;;2.10;1.10;;;;;;;15.49;95.12;99747.00;4991133;28;20030;-78
2022/08/16 00:59:06;;;;;;;3.20;1.10;;;;;;;15.45;95.64;99752.94;5006911;28;20033;-81
2022/08/16 01:01:31;;;;;;;3.00;1.30;;;;;;;15.40;95.90;99760.66;5009959;28;20113;-80
2022/08/16 01:03:58;;;;;;;4.55;1.08;;;;;;;15.36;96.39;99753.06;5010298;28;20065;-82
2022/08/16 01:06:25;;;;;;;2.67;1.08;;;;;;;15.34;96.53;99756.91;4980508;28;20043;-83
2022/08/16 01:08:55;;;;;;;3.13;1.20;;;;;;;15.33;96.67;99761.44;4979896;28;20038;-83
2022/08/16 01:11:25;;;;;;;2.40;0.93;;;;;;;15.31;96.81;99763.47;4983257;28;20061;-80
2022/08/16 01:13:56;;;;;;;2.70;1.25;;;;;;;15.28;97.00;99761.19;5015349;28;20084;-81
2022/08/16 01:16:25;;;;;;;4.60;1.05;;;;;;;15.23;97.10;99774.25;5001366;28;20069;-85
2022/08/16 01:18:59;;;;;;;2.50;0.98;;;;;;;15.20;97.41;99775.44;5006266;28;20030;-83
2022/08/16 01:21:36;;;;;;;2.15;0.90;;;;;;;15.16;97.69;99781.34;5011380;28;20484;-79
2022/08/16 01:24:26;;;;;;;1.42;1.10;;;;;;;15.11;97.63;99784.59;4984495;28;20096;-81
2022/08/16 01:27:01;;;;;;;2.35;1.00;;;;;;;15.09;97.74;99794.59;4997056;28;20030;-82
2022/08/16 01:29:35;;;;;;;1.85;1.02;;;;;;;15.02;98.00;99794.53;5006442;28;20085;-85
2022/08/16 01:32:01;;;;;;;1.45;1.02;;;;;;;15.00;98.29;99794.72;4994742;28;20033;-85
2022/08/16 01:34:27;;;;;;;2.15;0.98;;;;;;;14.98;98.11;99794.09;4976251;28;20068;-82
2022/08/16 01:37:03;;;;;;;3.38;0.90;;;;;;;14.95;98.33;99791.81;5022881;28;20053;-81
2022/08/16 01:39:30;;;;;;;1.55;0.80;;;;;;;14.93;98.58;99796.50;4976573;28;20046;-82
2022/08/16 01:41:56;;;;;;;3.40;0.80;;;;;;;14.88;98.20;99790.91;5008978;28;20033;-85
2022/08/16 01:44:22;;;;;;;1.00;0.60;;;;;;;14.86;98.42;99785.78;4993884;28;20391;-83
2022/08/16 01:46:48;;;;;;;3.63;0.90;;;;;;;14.86;98.46;99798.25;5005354;28;20041;-81
2022/08/16 01:49:31;;;;;;;2.00;0.85;;;;;;;14.87;98.74;99787.41;5006311;28;20034;-81
2022/08/16 01:52:05;;;;;;;0.95;0.50;;;;;;;14.87;99.21;99789.28;5018494;28;20034;-81
2022/08/16 01:54:44;;;;;;;4.90;0.90;;;;;;;14.78;100.00;99795.69;4922836;28;20211;-82
2022/08/16 01:57:11;;;;;;;1.92;0.85;;;;;;;14.70;100.00;99792.13;5016209;28;20026;-81
2022/08/16 01:59:40;;;;;;;3.20;0.90;;;;;;;14.65;100.00;99805.19;4987196;28;20034;-83
2022/08/16 02:02:08;;;;;;;2.50;0.80;;;;;;;14.61;100.00;99804.72;4990337;28;20033;-80
2022/08/16 02:04:34;;;;;;;4.00;1.23;;;;;;;14.59;100.00;99803.25;4995139;28;20038;-82
2022/08/16 02:07:07;;;;;;;4.55;1.10;;;;;;;14.48;100.00;99805.38;5006266;28;20060;-81
2022/08/16 02:09:36;;;;;;;4.25;1.23;;;;;;;14.40;100.00;99805.47;5000271;28;20045;-81
2022/08/16 02:12:05;;;;;;;4.90;1.17;;;;;;;14.39;100.00;99806.50;4977959;28;20480;-85
2022/08/16 02:14:32;;;;;;;3.10;1.10;;;;;;;14.38;100.00;99807.53;4987753;28;20033;-81
2022/08/16 02:17:01;;;;;;;3.83;1.35;;;;;;;14.38;100.00;99812.84;5003620;28;20105;-84
2022/08/16 02:19:29;;;;;;;2.72;1.02;;;;;;;14.37;100.00;99816.50;4986139;28;20022;-84
2022/08/16 02:21:57;;;;;;;6.22;1.00;;;;;;;14.36;100.00;99814.84;4960741;28;20038;-82
2022/08/16 02:24:23;;;;;;;4.78;1.27;;;;;;;14.32;100.00;99814.38;4964187;28;20390;-83
2022/08/16 02:26:49;;;;;;;4.97;1.42;;;;;;;14.27;100.00;99814.94;4999777;28;20034;-81
2022/08/16 02:29:19;;;;;;;6.80;1.55;;;;;;;14.20;100.00;99822.00;5006056;28;20124;-84
2022/08/16 02:31:50;;;;;;;2.78;0.88;;;;;;;14.20;100.00;99824.66;4992516;28;20042;-81
2022/08/16 02:34:18;;;;;;;6.00;1.10;;;;;;;14.16;99.91;99828.69;4982336;28;20038;-83
2022/08/16 02:36:45;;;;;;;3.83;1.20;;;;;;;14.13;99.65;99831.72;5009469;28;20038;-83
2022/08/16 02:39:13;;;;;;;4.68;1.33;;;;;;;14.13;99.11;99829.06;4984845;28;20149;-84
2022/08/16 02:41:42;;;;;;;5.82;1.02;;;;;;;14.13;98.47;99832.53;4990693;28;20038;-82
2022/08/16 02:44:12;;;;;;;5.63;1.17;;;;;;;14.13;97.85;99837.03;5004349;28;20149;-84
2022/08/16 02:46:41;;;;;;;3.92;1.13;;;;;;;14.16;97.31;99835.84;4997334;28;20113;-82
2022/08/16 02:49:07;;;;;;;6.82;1.63;;;;;;;14.16;96.89;99833.19;4974309;28;20038;-79
2022/08/16 02:51:34;;;;;;;5.22;1.08;;;;;;;14.13;96.11;99835.19;4989119;28;20054;-81
2022/08/16 02:54:00;;;;;;;6.70;1.10;;;;;;;14.12;95.79;99835.38;4997144;28;20084;-82
2022/08/16 02:56:28;;;;;;;4.22;0.98;;;;;;;14.13;95.20;99837.84;4988854;28;20026;-81
2022/08/16 02:58:54;;;;;;;4.80;1.48;;;;;;;14.13;95.01;99848.50;5013132;28;20038;-82
2022/08/16 03:01:24;;;;;;;6.70;0.90;;;;;;;14.07;94.25;99840.41;4984246;28;20037;-83
2022/08/16 03:03:51;;;;;;;4.45;0.90;;;;;;;14.05;93.82;99851.22;5021578;28;20038;-82
2022/08/16 03:06:19;;;;;;;4.03;1.02;;;;;;;14.02;93.69;99841.78;4992431;28;20050;-78
2022/08/16 03:08:48;;;;;;;8.45;1.17;;;;;;;14.05;93.58;99847.75;5010763;28;20103;-83
2022/08/16 03:11:16;;;;;;;3.90;0.73;;;;;;;13.98;93.34;99839.69;4983055;28;20030;-79
2022/08/16 03:13:48;;;;;;;4.63;1.02;;;;;;;13.92;92.53;99854.50;4996426;28;20029;-85
2022/08/16 03:16:14;;;;;;;3.55;0.80;;;;;;;13.89;92.25;99850.38;4989003;28;20033;-84
2022/08/16 03:18:40;;;;;;;4.10;0.70;;;;;;;13.89;92.14;99841.59;4988386;28;20034;-85
2022/08/16 03:21:08;;;;;;;1.98;0.57;;;;;;;13.86;91.38;99847.25;4994274;28;20042;-83
2022/08/16 03:23:35;;;;;;;3.80;0.75;;;;;;;13.86;91.37;99852.56;4980292;28;20496;-79
2022/08/16 03:26:00;;;;;;;4.03;1.17;;;;;;;13.88;91.48;99855.88;5020436;28;20483;-81
2022/08/16 03:28:26;;;;;;;7.68;0.60;;;;;;;13.83;90.77;99851.13;4982233;28;20030;-80
2022/08/16 03:30:52;;;;;;;6.97;0.95;;;;;;;13.84;90.50;99855.41;4976593;28;20037;-79
2022/08/16 03:33:20;;;;;;;5.45;0.95;;;;;;;13.83;90.45;99851.13;4980508;28;20030;-85
2022/08/16 03:35:58;;;;;;;4.85;0.80;;;;;;;13.83;89.90;99855.59;5022059;28;20050;-79
2022/08/16 03:38:35;;;;;;;5.68;0.68;;;;;;;13.79;90.03;99857.81;4981645;28;20038;-79
2022/08/16 03:41:07;;;;;;;3.33;0.73;;;;;;;13.81;89.84;99866.41;4987775;28;20137;-80
2022/08/16 03:43:33;;;;;;;3.17;0.65;;;;;;;13.81;89.70;99865.59;4992267;28;20031;-81
2022/08/16 03:46:00;;;;;;;7.72;0.90;;;;;;;13.74;89.20;99874.25;5011707;28;20026;-80
2022/08/16 03:48:32;;;;;;;2.45;0.50;;;;;;;13.71;88.84;99856.03;4972296;28;20070;-82
2022/08/16 03:51:02;;;;;;;8.85;0.77;;;;;;;13.70;88.77;99872.97;5005396;28;20035;-80
2022/08/16 03:53:32;;;;;;;7.63;1.02;;;;;;;13.67;88.84;99868.03;5009211;28;20034;-82
2022/08/16 03:55:58;;;;;;;3.85;0.88;;;;;;;13.64;88.80;99866.56;5009181;28;20048;-82
2022/08/16 03:58:25;;;;;;;7.18;1.02;;;;;;;13.68;88.99;99874.97;4994290;28;20066;-84
2022/08/16 04:00:51;;;;;;;5.05;0.52;;;;;;;13.67;88.67;99868.03;5006860;28;20164;-82
2022/08/16 04:03:17;;;;;;;4.63;0.88;;;;;;;13.63;88.41;99874.69;4996105;28;20034;-80
2022/08/16 04:05:47;;;;;;;6.53;0.85;;;;;;;13.62;88.04;99873.03;4988308;28;20077;-79
2022/08/16 04:08:14;;;;;;;4.82;0.80;;;;;;;13.60;87.82;99875.06;4987302;28;20035;-79
2022/08/16 04:10:41;;;;;;;14.68;1.48;;;;;;;13.59;87.12;99881.34;4988039;28;20173;-79
2022/08/16 04:13:06;;;;;;;3.85;0.80;;;;;;;13.57;87.08;99878.06;5012847;28;20480;-83
2022/08/16 04:15:33;;;;;;;8.60;1.38;;;;;;;13.52;86.42;99882.06;4988106;28;20413;-81
2022/08/16 04:18:15;;;;;;;6.13;0.80;;;;;;;13.50;86.30;99886.75;5007943;28;20045;-82
2022/08/16 04:20:41;;;;;;;2.40;0.80;;;;;;;13.47;85.60;99886.25;5015045;28;20030;-80
2022/08/16 04:23:08;;;;;;;3.42;0.45;;;;;;;13.43;84.96;99892.88;4986336;28;20040;-83
2022/08/16 04:25:37;;;;;;;2.35;0.50;;;;;;;13.35;83.75;99891.13;4983310;28;20039;-80
2022/08/16 04:28:04;;;;;;;4.50;0.70;;;;;;;13.36;83.39;99890.13;4994742;28;20046;-80
2022/08/16 04:30:30;;;;;;;4.65;0.80;;;;;;;13.34;83.10;99889.47;5010487;28;20512;-81
2022/08/16 04:32:56;;;;;;;5.22;0.70;;;;;;;13.28;82.37;99883.88;4981700;28;20042;-82
2022/08/16 04:35:23;;;;;;;5.03;0.60;;;;;;;13.31;82.09;99889.81;5000917;28;20035;-82
2022/08/16 04:37:50;;;;;;;3.55;0.70;;;;;;;13.32;81.84;99887.00;4984553;28;20035;-82
2022/08/16 04:40:21;;;;;;;3.75;0.93;;;;;;;13.32;82.00;99891.47;4965838;28;20397;-83
2022/08/16 04:42:47;;;;;;;5.65;0.88;;;;;;;13.32;82.31;99886.16;4994218;28;20034;-77
2022/08/16 04:45:16;;;;;;;2.97;1.00;;;;;;;13.31;82.59;99889.81;5018647;28;20058;-80
2022/08/16 04:47:43;;;;;;;3.55;0.90;;;;;;;13.32;82.61;99894.13;4970247;28;20038;-80
2022/08/16 04:50:21;;;;;;;5.18;0.63;;;;;;;13.30;81.95;99896.16;4956429;28;20397;-85
2022/08/16 04:53:13;;;;;;;3.30;0.70;;;;;;;13.22;81.75;99899.69;5001835;28;20041;-79
2022/08/16 04:55:43;;;;;;;3.35;0.82;;;;;;;13.25;81.16;99896.69;4999544;28;20109;-83
2022/08/16 04:58:09;;;;;;;2.58;0.63;;;;;;;13.22;80.86;99897.03;5012852;28;20038;-83
2022/08/16 05:00:36;;;;;;;1.85;0.60;;;;;;;13.18;80.63;99904.50;4986623;28;20042;-82
2022/08/16 05:03:12;;;;;;;3.55;0.98;;;;;;;13.15;80.26;99905.66;4988004;28;20042;-81
2022/08/16 05:05:56;;;;;;;4.53;0.80;;;;;;;13.15;79.82;99902.22;4967429;28;20055;-83
2022/08/16 05:08:24;;;;;;;2.20;0.40;;;;;;;13.12;79.15;99905.22;5019625;28;20043;-82
2022/08/16 05:11:06;;;;;;;3.17;0.80;;;;;;;13.10;78.67;99902.72;4977801;28;20097;-81
2022/08/16 05:13:35;;;;;;;5.60;0.77;;;;;;;13.07;78.65;99913.69;4990103;28;20026;-83
2022/08/16 05:16:03;;;;;;;6.65;0.90;;;;;;;13.04;78.09;99919.34;4995248;28;20489;-80
2022/08/16 05:18:30;;;;;;;3.78;0.80;;;;;;;13.04;77.81;99937.91;4989613;28;20511;-81
2022/08/16 05:20:57;;;;;;;4.65;0.75;;;;;;;13.05;77.94;99944.88;5016232;28;20054;-83
2022/08/16 05:23:22;;;;;;;4.60;0.80;;;;;;;12.99;77.42;99948.22;4991472;28;20605;-80
2022/08/16 05:25:49;;;;;;;4.20;0.80;;;;;;;13.01;77.34;99951.53;4992878;28;20038;-82
2022/08/16 05:28:17;;;;;;;2.70;0.82;;;;;;;12.98;77.11;99960.63;4976682;28;20030;-83
2022/08/16 05:30:49;;;;;;;3.35;0.70;;;;;;;12.98;77.24;99949.22;5010192;28;20388;-79
2022/08/16 05:33:20;;;;;;;2.05;0.50;;;;;;;12.96;77.15;99957.34;5011823;28;20035;-83
2022/08/16 05:35:48;;;;;;;2.30;0.95;;;;;;;12.93;77.32;99970.97;4984412;28;20042;-82
2022/08/16 05:38:18;;;;;;;2.92;0.60;;;;;;;12.97;77.50;99979.38;4987098;28;20150;-81
2022/08/16 05:40:44;;;;;;;4.20;1.05;;;;;;;12.93;77.75;99972.78;4991205;28;20799;-80
2022/08/16 05:43:11;;;;;;;2.20;0.57;;;;;;;12.88;78.10;99976.75;4981277;28;20035;-81
2022/08/16 05:45:39;;;;;;;1.33;0.40;;;;;;;12.80;78.33;99973.31;4997699;28;20040;-82
2022/08/16 05:48:04;;;;;;;1.60;0.65;;;;;;;12.81;78.28;99970.50;4980486;28;20034;-83
2022/08/16 05:50:49;;;;;;;2.53;0.60;;;;;;;12.79;78.73;99980.44;4982026;28;20054;-79
2022/08/16 05:53:16;;;;;;;5.88;1.10;;;;;;;12.78;78.63;99982.28;5012671;28;20400;-83
2022/08/16 05:55:57;;;;;;;1.40;0.50;;;;;;;12.78;78.89;99979.63;4991263;28;20061;-82
2022/08/16 05:58:23;;;;;;;1.92;0.40;;;;;;;12.76;78.93;99988.72;5001689;28;20436;-80
2022/08/16 06:00:49;;;;;;;3.00;0.63;;;;;;;12.72;78.94;99984.78;4977332;28;20034;-84
2022/08/16 06:03:15;;;;;;;4.50;0.65;;;;;;;12.68;79.10;99992.22;4978393;28;20500;-82
2022/08/16 06:05:55;;;;;;;2.92;0.70;;;;;;;12.68;78.82;99986.94;4976972;28;20060;-82
2022/08/16 06:08:21;;;;;;;4.78;0.90;;;;;;;12.63;78.70;99995.38;5015288;28;20038;-82
2022/08/16 06:10:48;;;;;;;4.75;1.00;;;;;;;12.61;78.96;99988.63;5024613;28;20069;-81
2022/08/16 06:13:14;;;;;;;3.90;0.63;;;;;;;12.60;79.05;99992.25;4981437;28;20038;-80
2022/08/16 06:15:40;;;;;;;4.10;1.35;;;;;;;12.54;79.09;99993.75;4989561;28;20041;-77
2022/08/16 06:18:05;;;;;;;6.72;0.90;;;;;;;12.57;79.32;99990.75;5033508;28;20033;-78
2022/08/16 06:20:32;;;;;;;4.22;1.33;;;;;;;12.58;79.14;100000.38;4986074;28;20159;-83
2022/08/16 06:22:58;;;;;;;3.35;0.82;;;;;;;12.55;79.58;100000.69;4969216;28;20496;-83
2022/08/16 06:25:28;;;;;;;3.10;1.10;;;;;;;12.61;79.22;100005.31;5021378;28;20042;-81
2022/08/16 06:27:55;;;;;;;5.55;1.00;;;;;;;12.62;79.70;99996.41;4980674;28;20137;-83
2022/08/16 06:30:22;;;;;;;4.82;1.10;;;;;;;12.65;79.88;99995.22;5012892;28;20373;-81
2022/08/16 06:32:49;;;;;;;6.85;0.90;;;;;;;12.68;79.69;100009.97;5003590;28;20038;-79
2022/08/16 06:35:16;;;;;;;4.57;0.85;;;;;;;12.77;79.92;100011.63;4986187;28;20026;-80
2022/08/16 06:37:44;;;;;;;2.90;1.00;;;;;;;12.81;79.92;100004.13;5008883;28;20053;-79
2022/08/16 06:40:11;;;;;;;5.78;0.93;;;;;;;12.82;80.07;100003.16;4987592;28;20039;-79
2022/08/16 06:42:51;;;;;;;5.65;0.70;;;;;;;12.83;79.83;100007.44;4982291;28;20037;-80
2022/08/16 06:45:30;;;;;;;4.68;0.50;;;;;;;12.84;79.90;100011.75;4986182;28;20037;-80
2022/08/16 06:48:04;;;;;;;3.95;0.93;;;;;;;12.90;79.92;100013.72;5005524;28;20070;-82
2022/08/16 06:50:31;;;;;;;2.63;0.30;;;;;;;12.85;80.14;100010.78;4991635;28;20648;-80
2022/08/16 06:53:01;;;;;;;3.10;0.85;;;;;;;12.87;80.49;100006.94;4988979;28;20072;-82
2022/08/16 06:55:28;;;;;;;2.90;0.60;;;;;;;12.85;80.86;100016.88;5003045;28;20058;-82
2022/08/16 06:57:55;;;;;;;4.85;1.15;;;;;;;12.89;80.88;100015.56;4985604;28;20042;-80
2022/08/16 07:00:23;;;;;;;3.58;0.82;;;;;;;12.94;80.83;100016.88;5015538;28;20058;-85
2022/08/16 07:02:56;;;;;;;5.38;0.77;;;;;;;12.97;81.13;100016.53;4989203;28;20041;-84
2022/08/16 07:05:22;;;;;;;5.57;1.00;;;;;;;12.99;81.31;100022.50;4987694;28;20050;-78
2022/08/16 07:08:20;;;;;;;6.80;0.90;;;;;;;13.03;81.16;100031.75;4980677;28;20511;-82
2022/08/16 07:10:45;;;;;;;5.78;0.80;;;;;;;13.08;81.43;100020.63;4989628;28;20042;-82
2022/08/16 07:13:13;;;;;;;5.07;0.77;;;;;;;13.13;81.12;100026.25;4966513;28;20046;-82
2022/08/16 07:15:41;;;;;;;3.90;0.80;;;;;;;13.21;81.01;100020.09;4974451;28;20535;-82
2022/08/16 07:18:10;;;;;;;3.15;0.63;;;;;;;13.22;81.12;100021.75;4969589;28;20042;-81
2022/08/16 07:20:38;;;;;;;2.35;0.80;;;;;;;13.36;81.46;100025.50;5006058;28;20041;-81
2022/08/16 07:23:05;;;;;;;4.55;0.70;;;;;;;13.50;80.70;100027.47;4960903;28;20126;-84
2022/08/16 07:25:41;;;;;;;3.45;0.82;;;;;;;13.62;80.12;100030.53;4968791;28;20066;-83
2022/08/16 07:28:12;;;;;;;4.72;0.93;;;;;;;13.84;80.12;100028.06;4952691;28;20038;-81
2022/08/16 07:30:40;;;;;;;4.38;0.70;;;;;;;14.06;79.69;100028.28;4978959;28;20512;-83
2022/08/16 07:33:08;;;;;;;3.17;0.70;;;;;;;14.17;78.87;100027.03;5001329;28;20168;-82
2022/08/16 07:35:37;;;;;;;4.45;0.82;;;;;;;14.32;78.49;100023.56;4980399;28;20038;-80
2022/08/16 07:38:05;;;;;;;4.55;0.57;;;;;;;14.28;77.02;100039.06;4997474;28;20074;-84
2022/08/16 07:40:41;;;;;;;3.10;0.98;;;;;;;14.27;77.05;100032.91;4984124;28;20504;-84
2022/08/16 07:43:07;;;;;;;1.42;0.70;;;;;;;14.39;76.47;100037.81;4971811;28;20485;-81
2022/08/16 07:45:35;;;;;;;5.30;1.10;;;;;;;14.48;75.75;100027.91;4997859;28;20034;-82
2022/08/16 07:48:01;;;;;;;3.90;0.75;;;;;;;14.42;75.44;100040.09;4989132;28;20031;-82
2022/08/16 07:50:29;;;;;;;2.28;0.60;;;;;;;14.37;74.89;100035.34;5005578;28;20057;-82
2022/08/16 07:52:54;;;;;;;6.75;1.20;;;;;;;14.45;75.25;100029.09;5007196;28;20069;-81
2022/08/16 07:55:20;;;;;;;5.30;0.80;;;;;;;14.54;74.95;100034.34;5015781;28;20484;-85
2022/08/16 07:57:46;;;;;;;3.40;0.60;;;;;;;14.59;74.70;100035.47;4973678;28;20051;-81
2022/08/16 08:00:12;;;;;;;5.07;0.90;;;;;;;14.64;74.72;100038.41;4988052;28;20455;-82
2022/08/16 08:02:46;;;;;;;4.88;0.80;;;;;;;14.62;74.90;100028.97;4987894;28;20481;-84
2022/08/16 08:05:17;;;;;;;5.97;1.05;;;;;;;14.57;74.32;100037.47;4999020;28;20058;-83
2022/08/16 08:07:43;;;;;;;4.32;0.68;;;;;;;14.51;73.94;100047.00;4978259;28;20506;-83
2022/08/16 08:10:09;;;;;;;3.25;0.68;;;;;;;14.51;74.39;100043.50;5004254;28;20123;-80
2022/08/16 08:12:35;;;;;;;2.10;0.80;;;;;;;14.35;73.05;100050.63;5002516;28;20058;-80
2022/08/16 08:15:07;;;;;;;1.85;0.50;;;;;;;14.33;73.48;100060.63;5003501;28;20041;-82
2022/08/16 08:17:37;;;;;;;1.30;0.40;;;;;;;14.26;73.62;100049.88;4999610;28;20040;-82
2022/08/16 08:20:05;;;;;;;1.23;0.52;;;;;;;14.29;73.32;100054.00;5007027;28;20034;-82
2022/08/16 08:22:31;;;;;;;2.30;0.57;;;;;;;14.27;73.30;100051.53;4976959;28;20485;-84
2022/08/16 08:25:02;;;;;;;4.85;0.77;;;;;;;14.37;73.28;100053.94;4991005;28;20034;-82
2022/08/16 08:27:28;;;;;;;2.47;0.55;;;;;;;14.51;72.82;100054.97;4976233;28;20034;-83
2022/08/16 08:29:55;;;;;;;4.68;0.68;;;;;;;14.50;72.31;100057.81;5011229;28;20034;-80
2022/08/16 08:32:21;;;;;;;6.35;1.35;;;;;;;14.48;71.94;100050.03;5003339;28;20073;-82
2022/08/16 08:34:47;;;;;;;4.82;0.90;;;;;;;14.51;71.37;100046.16;5008748;28;20029;-83
2022/08/16 08:37:13;;;;;;;8.15;0.75;;;;;;;14.59;70.75;100053.25;4995456;28;20083;-80
2022/08/16 08:39:41;;;;;;;2.47;0.77;;;;;;;14.62;69.82;100043.06;4978508;28;20147;-81
2022/08/16 08:42:07;;;;;;;5.22;0.63;;;;;;;14.63;68.56;100043.91;5008259;28;20159;-82
2022/08/16 08:44:34;;;;;;;3.80;0.90;;;;;;;14.64;67.74;100049.03;5008417;28;20038;-82
2022/08/16 08:47:10;;;;;;;2.70;0.47;;;;;;;14.75;68.10;100050.44;4972221;28;20042;-81
2022/08/16 08:49:37;;;;;;;2.08;0.40;;;;;;;14.80;67.04;100057.91;4997395;28;20036;-79
2022/08/16 08:52:04;;;;;;;1.40;0.40;;;;;;;14.85;66.57;100071.50;4970488;28;20041;-80
2022/08/16 08:54:31;;;;;;;2.65;0.60;;;;;;;14.87;66.37;100058.81;5005570;28;20034;-81
2022/08/16 08:56:57;;;;;;;3.38;0.98;;;;;;;14.86;65.94;100067.81;4977444;28;20044;-84
2022/08/16 08:59:31;;;;;;;2.75;0.63;;;;;;;14.96;66.19;100072.88;4990449;28;20079;-79
2022/08/16 09:01:58;;;;;;;3.00;0.50;;;;;;;15.07;66.20;100068.94;5011539;28;20037;-80
2022/08/16 09:04:31;;;;;;;4.05;0.75;;;;;;;15.17;66.57;100068.66;4993601;28;20042;-80
2022/08/16 09:07:00;;;;;;;5.07;0.80;;;;;;;15.21;65.79;100067.28;4975243;28;20042;-81
2022/08/16 09:09:27;;;;;;;1.13;0.30;;;;;;;15.20;64.77;100081.59;4986138;28;20034;-79
2022/08/16 09:11:56;;;;;;;3.72;1.35;;;;;;;15.15;64.20;100075.16;5012299;28;20040;-80
2022/08/16 09:14:22;;;;;;;3.33;0.80;;;;;;;15.28;64.58;100078.00;5006040;28;20041;-81
2022/08/16 09:16:49;;;;;;;3.33;0.50;;;;;;;15.46;64.53;100068.81;5023570;28;20664;-80
2022/08/16 09:19:16;;;;;;;2.17;0.75;;;;;;;15.62;65.01;100071.25;5008271;28;20026;-84
2022/08/16 09:21:42;;;;;;;1.45;0.55;;;;;;;15.64;63.98;100081.72;5005627;28;20030;-81
2022/08/16 09:24:08;;;;;;;4.35;0.70;;;;;;;15.68;63.96;100076.84;5003518;28;20041;-84
2022/08/16 09:26:34;;;;;;;2.58;0.60;;;;;;;15.69;63.67;100074.00;5005664;28;20511;-81
2022/08/16 09:29:00;;;;;;;2.05;0.47;;;;;;;15.52;63.15;100076.06;4986176;28;20038;-85
2022/08/16 09:31:26;;;;;;;1.63;0.70;;;;;;;15.30;63.57;100078.66;4998270;28;20435;-84
2022/08/16 09:33:51;;;;;;;1.65;0.47;;;;;;;15.21;64.00;100077.91;5001970;28;20484;-81
2022/08/16 09:36:18;;;;;;;6.57;1.05;;;;;;;15.23;64.32;100089.22;5019897;28;20412;-79
2022/08/16 09:38:44;;;;;;;1.27;0.40;;;;;;;15.13;64.34;100092.16;5005223;28;20032;-81
2022/08/16 09:41:10;;;;;;;3.90;0.60;;;;;;;15.21;64.41;100085.91;4989269;28;20110;-83
2022/08/16 09:43:38;;;;;;;4.10;0.40;;;;;;;15.38;64.77;100083.06;4989014;28;20062;-81
2022/08/16 09:46:06;;;;;;;1.38;0.43;;;;;;;15.49;64.53;100077.28;5022433;28;20057;-82
2022/08/16 09:48:33;;;;;;;1.67;0.40;;;;;;;15.59;64.24;100082.28;5007758;28;20404;-84
2022/08/16 09:50:59;;;;;;;6.22;0.95;;;;;;;15.69;63.78;100094.47;5010139;28;20117;-80
2022/08/16 09:53:25;;;;;;;3.70;0.57;;;;;;;15.67;64.28;100089.34;5020618;28;20121;-78
2022/08/16 09:55:54;;;;;;;1.98;0.40;;;;;;;15.89;64.30;100076.06;4991876;28;20038;-82
2022/08/16 09:58:22;;;;;;;1.75;0.50;;;;;;;16.07;64.13;100082.84;4989568;28;20038;-79
2022/08/16 10:00:49;;;;;;;2.67;0.40;;;;;;;16.25;63.91;100090.38;4982774;28;20053;-79
2022/08/16 10:03:16;;;;;;;3.17;0.40;;;;;;;16.28;63.06;100087.34;5023433;28;20529;-79
2022/08/16 10:05:42;;;;;;;1.17;0.45;;;;;;;16.10;62.04;100093.13;4994359;28;20104;-81
2022/08/16 10:08:07;;;;;;;1.40;0.38;;;;;;;15.94;61.82;100094.97;4947672;28;20504;-80
2022/08/16 10:10:34;;;;;;;3.38;0.50;;;;;;;16.01;62.74;100067.63;4976551;28;20029;-79
2022/08/16 10:13:13;;;;;;;2.58;0.55;;;;;;;16.23;63.31;100087.09;5002720;28;20026;-84
2022/08/16 10:15:41;;;;;;;3.72;0.82;;;;;;;16.12;63.70;100094.59;4969145;28;20103;-80
2022/08/16 10:18:11;;;;;;;5.25;0.90;;;;;;;15.97;64.17;100101.78;4959235;28;20487;-82
2022/08/16 10:20:43;;;;;;;3.53;0.77;;;;;;;15.86;64.37;100092.44;4990405;28;20029;-79
2022/08/16 10:23:13;;;;;;;2.25;0.50;;;;;;;15.65;63.57;100098.53;5021202;28;20034;-81
2022/08/16 10:25:41;;;;;;;3.67;0.80;;;;;;;15.72;63.58;100099.44;4975499;28;20030;-79
2022/08/16 10:28:08;;;;;;;3.95;0.77;;;;;;;15.90;63.87;100096.38;4967488;28;20484;-79
2022/08/16 10:30:35;;;;;;;4.80;1.17;;;;;;;16.22;64.11;100094.28;4995789;28;20113;-80
2022/08/16 10:33:01;;;;;;;2.40;0.55;;;;;;;16.23;63.30;100097.75;5006115;28;20058;-82
2022/08/16 10:35:26;;;;;;;3.08;0.77;;;;;;;16.00;63.03;100096.09;4993106;28;20111;-80
2022/08/16 10:37:52;;;;;;;4.30;0.70;;;;;;;15.84;63.78;100105.97;5010859;28;20060;-81
2022/08/16 10:40:19;;;;;;;4.50;0.80;;;;;;;15.74;63.52;100100.09;4969604;28;20038;-82
2022/08/16 10:42:45;;;;;;;2.28;0.60;;;;;;;15.62;63.61;100121.06;4997341;28;20034;-80
2022/08/16 10:45:11;;;;;;;1.50;0.60;;;;;;;15.58;63.73;100103.78;5004021;28;20443;-79
2022/08/16 10:47:37;;;;;;;2.25;0.70;;;;;;;15.65;64.18;100112.69;4974377;28;20037;-80
2022/08/16 10:50:05;;;;;;;9.63;0.82;;;;;;;15.66;64.46;100102.84;4969835;28;20030;-81
2022/08/16 10:52:32;;;;;;;1.80;0.68;;;;;;;15.66;64.45;100101.03;4989559;28;20037;-81
2022/08/16 10:54:59;;;;;;;3.13;0.70;;;;;;;15.73;64.51;100106.44;4993462;28;20078;-81
2022/08/16 10:57:26;;;;;;;4.38;0.60;;;;;;;15.88;64.35;100107.22;4976906;28;20646;-82
2022/08/16 10:59:53;;;;;;;1.85;0.93;;;;;;;16.15;63.17;100106.69;4976045;28;20034;-83
2022/08/16 11:02:19;;;;;;;3.05;0.70;;;;;;;16.45;61.60;100095.09;5005657;28;20037;-83
2022/08/16 11:04:45;;;;;;;0.82;0.25;;;;;;;16.55;61.05;100098.25;4977769;28;20579;-80
2022/08/16 11:07:11;;;;;;;2.70;0.50;;;;;;;16.74;61.01;100091.41;5008374;28;20042;-81
2022/08/16 11:09:37;;;;;;;5.45;0.55;;;;;;;16.84;61.47;100107.09;4990702;28;20034;-82
2022/08/16 11:12:05;;;;;;;2.35;0.60;;;;;;;16.66;61.25;100102.22;4975699;28;20027;-80
2022/08/16 11:14:33;;;;;;;1.60;0.75;;;;;;;16.42;61.72;100106.94;5020392;28;20062;-80
2022/08/16 11:17:01;;;;;;;2.88;0.80;;;;;;;16.31;62.43;100118.16;4970402;28;20512;-80
2022/08/16 11:19:29;;;;;;;2.13;0.60;;;;;;;16.08;63.23;100113.81;4973965;28;20412;-81
2022/08/16 11:21:55;;;;;;;3.38;0.73;;;;;;;15.94;63.93;100118.97;4979191;28;20069;-82
2022/08/16 11:24:21;;;;;;;2.70;0.75;;;;;;;15.93;65.01;100116.47;4967588;28;20042;-83
2022/08/16 11:26:49;;;;;;;3.30;0.60;;;;;;;15.83;65.51;100120.28;5005537;28;20106;-79
2022/08/16 11:29:15;;;;;;;4.68;0.85;;;;;;;15.86;65.96;100119.09;4989982;28;20037;-81
2022/08/16 11:31:42;;;;;;;3.42;0.70;;;;;;;15.94;66.24;100120.81;4998122;28;20396;-80
2022/08/16 11:34:08;;;;;;;2.03;0.70;;;;;;;16.00;66.39;100120.09;4998436;28;20454;-83
2022/08/16 11:36:35;;;;;;;4.43;0.90;;;;;;;15.98;66.05;100130.94;4985767;28;20032;-80